Airfield :
LOGIN :

Register | Disclaimer

   EN    FR    IT 

 










Legend :    VFR   Marginal VFR   IFR   Intensive IFR   Very Intensive IFR
Visi :
Ceiling :
>= 8 km
>= 3000ft
5 to 8 km
1000 to 3000 ft
1500m to 5 km
500 to 1000 ft
800 to 1500m
200 to 500 ft
< 800m
< 200 ft
Symbols :   Thunderstorms  Fog  Heavy snow  Heavy precipitations  Wind > 20 kt
SIGMETs :     Misc.  Thunderstorms  Icing  Turbulence  Mountain Waves  Volcanic Ashes






- Airport Elevation : 335 ft
- IATA code : BEG


LYBE - Belgrade Nikola Tesla

CURRENT METAR :
  • 070030Z 12011KT CAVOK 05/M06 Q1032 NOSIG

EXPIRED METARs :
  • 070000Z 10005KT CAVOK 06/M06 Q1032 NOSIG
  • 062330Z 11010KT CAVOK 07/M06 Q1032 NOSIG
  • 062300Z 16006KT CAVOK 09/M07 Q1032 NOSIG
  • 062230Z 13008KT CAVOK 10/M07 Q1032 NOSIG
  • 062200Z 11009KT CAVOK 09/M07 Q1032 NOSIG

TAF TAF LYBE
Valid from the 07 at 00:00 until the 08 at 00:00 UTC


062300Z 0700/0724 10006KT CAVOK TX18/0712Z TN05/0705Z
TEMPO 0708/0715 11016KT



MET'MAP, your aeronautical weather chart ! - Copyright ORBIFLY December 2007 - Disclaimer

ORBIFLY MET'MAP TEAM :

Programming & Development : Alexandra Zaïnal
Concept & original design : Baudouin d'Aumeries
Assistance for programming : Marc-Olivier Méhu
Technical & hardware support : Manuel Goepfert

Contact : metmap@orbifly.com




SOURCES & CREDITS :

   NOAA